sensor_id;sensor_type;location;lat;lon;timestamp;temperature;humidity
77496;SHT31;66600;48.378;9.948;2023-03-01T00:00:11;-1.13;75.38
77496;SHT31;66600;48.378;9.948;2023-03-01T00:02:36;-1.12;75.38
77496;SHT31;66600;48.378;9.948;2023-03-01T00:05:01;-1.12;75.52
77496;SHT31;66600;48.378;9.948;2023-03-01T00:07:27;-1.13;75.65
77496;SHT31;66600;48.378;9.948;2023-03-01T00:09:52;-1.14;75.71
77496;SHT31;66600;48.378;9.948;2023-03-01T00:12:19;-1.14;75.79
77496;SHT31;66600;48.378;9.948;2023-03-01T00:14:44;-1.14;75.82
77496;SHT31;66600;48.378;9.948;2023-03-01T00:17:10;-1.14;75.90
77496;SHT31;66600;48.378;9.948;2023-03-01T00:19:35;-1.13;75.88
77496;SHT31;66600;48.378;9.948;2023-03-01T00:22:01;-1.14;75.97
77496;SHT31;66600;48.378;9.948;2023-03-01T00:24:26;-1.14;75.88
77496;SHT31;66600;48.378;9.948;2023-03-01T00:26:55;-1.13;75.96
77496;SHT31;66600;48.378;9.948;2023-03-01T00:29:21;-1.09;75.94
77496;SHT31;66600;48.378;9.948;2023-03-01T00:31:47;-1.09;75.93
77496;SHT31;66600;48.378;9.948;2023-03-01T00:34:12;-1.10;76.15
77496;SHT31;66600;48.378;9.948;2023-03-01T00:36:37;-1.10;76.10
77496;SHT31;66600;48.378;9.948;2023-03-01T00:39:04;-1.07;76.22
77496;SHT31;66600;48.378;9.948;2023-03-01T00:41:30;-1.07;76.16
77496;SHT31;66600;48.378;9.948;2023-03-01T00:43:56;-1.10;76.17
77496;SHT31;66600;48.378;9.948;2023-03-01T00:46:25;-1.07;76.21
77496;SHT31;66600;48.378;9.948;2023-03-01T00:48:51;-1.07;76.11
77496;SHT31;66600;48.378;9.948;2023-03-01T00:51:26;-1.06;76.08
77496;SHT31;66600;48.378;9.948;2023-03-01T00:53:57;-1.07;76.23
77496;SHT31;66600;48.378;9.948;2023-03-01T00:56:23;-1.06;76.08
77496;SHT31;66600;48.378;9.948;2023-03-01T00:58:48;-1.03;76.09
77496;SHT31;66600;48.378;9.948;2023-03-01T01:01:17;-1.04;76.11
77496;SHT31;66600;48.378;9.948;2023-03-01T01:03:47;-1.02;76.03
77496;SHT31;66600;48.378;9.948;2023-03-01T01:06:14;-1.02;75.94
77496;SHT31;66600;48.378;9.948;2023-03-01T01:08:39;-1.03;76.11
77496;SHT31;66600;48.378;9.948;2023-03-01T01:11:05;-1.03;75.99
77496;SHT31;66600;48.378;9.948;2023-03-01T01:13:30;-1.03;76.09
77496;SHT31;66600;48.378;9.948;2023-03-01T01:16:00;-1.02;75.96
77496;SHT31;66600;48.378;9.948;2023-03-01T01:18:26;-1.02;76.04
77496;SHT31;66600;48.378;9.948;2023-03-01T01:20:51;-0.99;75.99
77496;SHT31;66600;48.378;9.948;2023-03-01T01:23:16;-0.99;75.94
77496;SHT31;66600;48.378;9.948;2023-03-01T01:25:42;-1.00;75.88
77496;SHT31;66600;48.378;9.948;2023-03-01T01:28:07;-0.99;75.81
77496;SHT31;66600;48.378;9.948;2023-03-01T01:30:32;-0.99;75.75
77496;SHT31;66600;48.378;9.948;2023-03-01T01:32:57;-1.02;75.84
77496;SHT31;66600;48.378;9.948;2023-03-01T01:35:23;-0.97;75.78
77496;SHT31;66600;48.378;9.948;2023-03-01T01:37:48;-1.00;75.84
77496;SHT31;66600;48.378;9.948;2023-03-01T01:40:13;-0.95;75.79
77496;SHT31;66600;48.378;9.948;2023-03-01T01:42:39;-0.93;75.79
77496;SHT31;66600;48.378;9.948;2023-03-01T01:45:32;-0.96;75.79
77496;SHT31;66600;48.378;9.948;2023-03-01T01:48:02;-0.93;75.77
77496;SHT31;66600;48.378;9.948;2023-03-01T01:50:29;-0.99;75.83
77496;SHT31;66600;48.378;9.948;2023-03-01T01:53:05;-0.96;75.77
77496;SHT31;66600;48.378;9.948;2023-03-01T01:55:31;-0.97;75.84
77496;SHT31;66600;48.378;9.948;2023-03-01T01:58:00;-0.95;75.82
77496;SHT31;66600;48.378;9.948;2023-03-01T02:00:29;-0.95;75.78
77496;SHT31;66600;48.378;9.948;2023-03-01T02:02:57;-0.95;75.66
77496;SHT31;66600;48.378;9.948;2023-03-01T02:05:35;-0.95;75.81
77496;SHT31;66600;48.378;9.948;2023-03-01T02:08:02;-0.95;75.79
77496;SHT31;66600;48.378;9.948;2023-03-01T02:10:29;-0.95;75.79
77496;SHT31;66600;48.378;9.948;2023-03-01T02:12:57;-0.92;75.89
77496;SHT31;66600;48.378;9.948;2023-03-01T02:15:23;-0.92;75.90
77496;SHT31;66600;48.378;9.948;2023-03-01T02:17:49;-0.95;75.94
77496;SHT31;66600;48.378;9.948;2023-03-01T02:22:39;-0.95;75.91
77496;SHT31;66600;48.378;9.948;2023-03-01T02:30:33;-0.92;75.80
77496;SHT31;66600;48.378;9.948;2023-03-01T02:33:00;-0.89;75.84
77496;SHT31;66600;48.378;9.948;2023-03-01T02:35:36;-0.88;75.83
77496;SHT31;66600;48.378;9.948;2023-03-01T02:38:03;-0.88;75.86
77496;SHT31;66600;48.378;9.948;2023-03-01T02:40:33;-0.85;76.05
77496;SHT31;66600;48.378;9.948;2023-03-01T02:42:59;-0.86;75.76
77496;SHT31;66600;48.378;9.948;2023-03-01T02:45:25;-0.88;75.76
77496;SHT31;66600;48.378;9.948;2023-03-01T02:47:55;-0.86;75.57
77496;SHT31;66600;48.378;9.948;2023-03-01T02:53:08;-0.86;75.65
77496;SHT31;66600;48.378;9.948;2023-03-01T02:55:35;-0.82;75.52
77496;SHT31;66600;48.378;9.948;2023-03-01T02:58:02;-0.82;75.52
77496;SHT31;66600;48.378;9.948;2023-03-01T03:00:35;-0.84;75.56
77496;SHT31;66600;48.378;9.948;2023-03-01T03:03:04;-0.81;75.65
77496;SHT31;66600;48.378;9.948;2023-03-01T03:05:31;-0.82;75.58
77496;SHT31;66600;48.378;9.948;2023-03-01T03:07:59;-0.82;75.60
77496;SHT31;66600;48.378;9.948;2023-03-01T03:10:36;-0.78;75.33
77496;SHT31;66600;48.378;9.948;2023-03-01T03:13:07;-0.78;75.43
77496;SHT31;66600;48.378;9.948;2023-03-01T03:15:33;-0.84;75.48
77496;SHT31;66600;48.378;9.948;2023-03-01T03:18:05;-0.82;75.60
77496;SHT31;66600;48.378;9.948;2023-03-01T03:20:32;-0.85;75.47
77496;SHT31;66600;48.378;9.948;2023-03-01T03:22:58;-0.85;75.38
77496;SHT31;66600;48.378;9.948;2023-03-01T03:25:24;-0.82;75.65
77496;SHT31;66600;48.378;9.948;2023-03-01T03:27:51;-0.84;75.52
77496;SHT31;66600;48.378;9.948;2023-03-01T03:30:28;-0.85;75.63
77496;SHT31;66600;48.378;9.948;2023-03-01T03:32:55;-0.85;75.44
77496;SHT31;66600;48.378;9.948;2023-03-01T03:35:23;-0.82;75.54
77496;SHT31;66600;48.378;9.948;2023-03-01T03:37:50;-0.82;75.55
77496;SHT31;66600;48.378;9.948;2023-03-01T03:40:54;-0.82;75.50
77496;SHT31;66600;48.378;9.948;2023-03-01T03:43:26;-0.82;75.42
77496;SHT31;66600;48.378;9.948;2023-03-01T03:45:51;-0.79;75.39
77496;SHT31;66600;48.378;9.948;2023-03-01T03:48:17;-0.84;75.15
77496;SHT31;66600;48.378;9.948;2023-03-01T03:50:48;-0.82;75.47
77496;SHT31;66600;48.378;9.948;2023-03-01T03:53:14;-0.84;75.22
77496;SHT31;66600;48.378;9.948;2023-03-01T03:55:39;-0.81;75.38
77496;SHT31;66600;48.378;9.948;2023-03-01T03:58:06;-0.85;75.34
77496;SHT31;66600;48.378;9.948;2023-03-01T04:00:34;-0.85;75.48
77496;SHT31;66600;48.378;9.948;2023-03-01T04:02:59;-0.84;75.48
77496;SHT31;66600;48.378;9.948;2023-03-01T04:05:26;-0.84;75.47
77496;SHT31;66600;48.378;9.948;2023-03-01T04:07:52;-0.86;75.31
77496;SHT31;66600;48.378;9.948;2023-03-01T04:10:32;-0.85;75.40
77496;SHT31;66600;48.378;9.948;2023-03-01T04:12:57;-0.84;75.62
77496;SHT31;66600;48.378;9.948;2023-03-01T04:15:24;-0.89;75.60
77496;SHT31;66600;48.378;9.948;2023-03-01T04:17:51;-0.92;75.60
77496;SHT31;66600;48.378;9.948;2023-03-01T04:20:26;-0.92;75.77
77496;SHT31;66600;48.378;9.948;2023-03-01T04:23:00;-0.92;75.72
77496;SHT31;66600;48.378;9.948;2023-03-01T04:25:39;-0.92;75.72
77496;SHT31;66600;48.378;9.948;2023-03-01T04:28:05;-0.91;75.87
77496;SHT31;66600;48.378;9.948;2023-03-01T04:30:31;-0.92;75.80
77496;SHT31;66600;48.378;9.948;2023-03-01T04:33:10;-0.93;75.72
77496;SHT31;66600;48.378;9.948;2023-03-01T04:35:36;-0.95;75.79
77496;SHT31;66600;48.378;9.948;2023-03-01T04:38:02;-0.92;75.80
77496;SHT31;66600;48.378;9.948;2023-03-01T04:40:28;-0.91;75.97
77496;SHT31;66600;48.378;9.948;2023-03-01T04:42:53;-0.96;76.11
77496;SHT31;66600;48.378;9.948;2023-03-01T04:45:19;-0.96;75.91
77496;SHT31;66600;48.378;9.948;2023-03-01T04:47:46;-0.99;75.96
77496;SHT31;66600;48.378;9.948;2023-03-01T04:50:13;-0.96;75.97
77496;SHT31;66600;48.378;9.948;2023-03-01T04:52:39;-0.97;76.05
77496;SHT31;66600;48.378;9.948;2023-03-01T04:55:05;-0.97;75.91
77496;SHT31;66600;48.378;9.948;2023-03-01T04:57:31;-0.96;75.95
77496;SHT31;66600;48.378;9.948;2023-03-01T04:59:57;-0.99;75.95
77496;SHT31;66600;48.378;9.948;2023-03-01T05:02:22;-0.95;75.86
77496;SHT31;66600;48.378;9.948;2023-03-01T05:04:47;-0.92;75.98
77496;SHT31;66600;48.378;9.948;2023-03-01T05:07:13;-0.95;75.89
77496;SHT31;66600;48.378;9.948;2023-03-01T05:09:45;-0.96;75.82
77496;SHT31;66600;48.378;9.948;2023-03-01T05:12:11;-0.97;75.87
77496;SHT31;66600;48.378;9.948;2023-03-01T05:14:36;-0.95;76.05
77496;SHT31;66600;48.378;9.948;2023-03-01T05:17:03;-0.97;76.01
77496;SHT31;66600;48.378;9.948;2023-03-01T05:19:29;-0.95;76.21
77496;SHT31;66600;48.378;9.948;2023-03-01T05:21:56;-0.97;76.05
77496;SHT31;66600;48.378;9.948;2023-03-01T05:24:30;-1.04;76.08
77496;SHT31;66600;48.378;9.948;2023-03-01T05:26:56;-1.03;76.44
77496;SHT31;66600;48.378;9.948;2023-03-01T05:29:22;-1.07;76.41
77496;SHT31;66600;48.378;9.948;2023-03-01T05:31:53;-1.06;76.60
77496;SHT31;66600;48.378;9.948;2023-03-01T05:34:23;-1.09;76.57
77496;SHT31;66600;48.378;9.948;2023-03-01T05:36:48;-1.09;76.64
77496;SHT31;66600;48.378;9.948;2023-03-01T05:39:18;-1.12;76.61
77496;SHT31;66600;48.378;9.948;2023-03-01T05:41:43;-1.12;76.89
77496;SHT31;66600;48.378;9.948;2023-03-01T05:44:08;-1.13;76.82
77496;SHT31;66600;48.378;9.948;2023-03-01T05:46:33;-1.13;76.82
77496;SHT31;66600;48.378;9.948;2023-03-01T05:48:59;-1.16;76.84
77496;SHT31;66600;48.378;9.948;2023-03-01T05:51:25;-1.17;76.67
77496;SHT31;66600;48.378;9.948;2023-03-01T05:53:51;-1.17;76.86
77496;SHT31;66600;48.378;9.948;2023-03-01T05:56:16;-1.17;76.79
77496;SHT31;66600;48.378;9.948;2023-03-01T05:58:41;-1.19;76.58
77496;SHT31;66600;48.378;9.948;2023-03-01T06:01:11;-1.17;76.69
77496;SHT31;66600;48.378;9.948;2023-03-01T06:03:37;-1.21;76.72
77496;SHT31;66600;48.378;9.948;2023-03-01T06:06:02;-1.21;76.75
77496;SHT31;66600;48.378;9.948;2023-03-01T06:08:28;-1.21;76.85
77496;SHT31;66600;48.378;9.948;2023-03-01T06:10:53;-1.21;76.71
77496;SHT31;66600;48.378;9.948;2023-03-01T06:13:19;-1.23;76.53
77496;SHT31;66600;48.378;9.948;2023-03-01T06:15:44;-1.21;76.60
77496;SHT31;66600;48.378;9.948;2023-03-01T06:18:09;-1.26;76.60
77496;SHT31;66600;48.378;9.948;2023-03-01T06:20:34;-1.24;76.71
77496;SHT31;66600;48.378;9.948;2023-03-01T06:23:00;-1.23;76.58
77496;SHT31;66600;48.378;9.948;2023-03-01T06:25:26;-1.23;76.40
77496;SHT31;66600;48.378;9.948;2023-03-01T06:27:52;-1.26;76.52
77496;SHT31;66600;48.378;9.948;2023-03-01T06:30:19;-1.27;76.46
77496;SHT31;66600;48.378;9.948;2023-03-01T06:32:44;-1.26;76.58
77496;SHT31;66600;48.378;9.948;2023-03-01T06:35:11;-1.24;76.51
77496;SHT31;66600;48.378;9.948;2023-03-01T06:37:37;-1.20;76.38
77496;SHT31;66600;48.378;9.948;2023-03-01T06:40:04;-1.24;76.40
77496;SHT31;66600;48.378;9.948;2023-03-01T06:42:36;-1.19;76.21
77496;SHT31;66600;48.378;9.948;2023-03-01T06:45:05;-1.20;76.14
77496;SHT31;66600;48.378;9.948;2023-03-01T06:47:31;-1.31;76.07
77496;SHT31;66600;48.378;9.948;2023-03-01T06:49:58;-1.19;76.23
77496;SHT31;66600;48.378;9.948;2023-03-01T06:52:23;-1.19;75.92
77496;SHT31;66600;48.378;9.948;2023-03-01T06:54:49;-1.16;76.00
77496;SHT31;66600;48.378;9.948;2023-03-01T06:57:14;-1.17;75.57
77496;SHT31;66600;48.378;9.948;2023-03-01T06:59:43;-1.09;75.52
77496;SHT31;66600;48.378;9.948;2023-03-01T07:02:12;-1.24;75.96
77496;SHT31;66600;48.378;9.948;2023-03-01T07:04:38;-1.30;75.89
77496;SHT31;66600;48.378;9.948;2023-03-01T07:07:04;-1.36;75.91
77496;SHT31;66600;48.378;9.948;2023-03-01T07:09:29;-1.37;75.97
77496;SHT31;66600;48.378;9.948;2023-03-01T07:11:55;-1.31;76.56
77496;SHT31;66600;48.378;9.948;2023-03-01T07:14:21;-1.40;76.19
77496;SHT31;66600;48.378;9.948;2023-03-01T07:16:46;-1.48;76.36
77496;SHT31;66600;48.378;9.948;2023-03-01T07:19:12;-1.39;76.61
77496;SHT31;66600;48.378;9.948;2023-03-01T07:21:37;-1.51;76.51
77496;SHT31;66600;48.378;9.948;2023-03-01T07:24:06;-1.54;76.49
77496;SHT31;66600;48.378;9.948;2023-03-01T07:26:32;-1.44;76.26
77496;SHT31;66600;48.378;9.948;2023-03-01T07:29:02;-1.29;75.78
77496;SHT31;66600;48.378;9.948;2023-03-01T07:31:27;-1.31;75.54
77496;SHT31;66600;48.378;9.948;2023-03-01T07:33:56;-1.19;75.15
77496;SHT31;66600;48.378;9.948;2023-03-01T07:36:22;-1.14;75.18
77496;SHT31;66600;48.378;9.948;2023-03-01T07:38:47;-0.99;74.70
77496;SHT31;66600;48.378;9.948;2023-03-01T07:41:13;-0.89;74.13
77496;SHT31;66600;48.378;9.948;2023-03-01T07:43:38;-0.97;74.02
77496;SHT31;66600;48.378;9.948;2023-03-01T07:46:04;-0.91;74.24
77496;SHT31;66600;48.378;9.948;2023-03-01T07:48:30;-0.96;74.20
77496;SHT31;66600;48.378;9.948;2023-03-01T07:51:00;-1.17;74.59
77496;SHT31;66600;48.378;9.948;2023-03-01T07:53:26;-1.29;75.47
77496;SHT31;66600;48.378;9.948;2023-03-01T07:56:01;-1.26;75.47
77496;SHT31;66600;48.378;9.948;2023-03-01T07:58:26;-1.23;75.28
77496;SHT31;66600;48.378;9.948;2023-03-01T08:00:51;-1.09;75.19
77496;SHT31;66600;48.378;9.948;2023-03-01T08:03:16;-1.10;74.76
77496;SHT31;66600;48.378;9.948;2023-03-01T08:05:42;-0.93;74.22
77496;SHT31;66600;48.378;9.948;2023-03-01T08:08:07;-0.95;74.35
77496;SHT31;66600;48.378;9.948;2023-03-01T08:10:32;-0.88;74.45
77496;SHT31;66600;48.378;9.948;2023-03-01T08:12:57;-0.88;73.90
77496;SHT31;66600;48.378;9.948;2023-03-01T08:15:23;-0.65;73.59
77496;SHT31;66600;48.378;9.948;2023-03-01T08:17:49;-0.58;73.13
77496;SHT31;66600;48.378;9.948;2023-03-01T08:20:15;-0.68;73.08
77496;SHT31;66600;48.378;9.948;2023-03-01T08:22:41;-0.50;72.65
77496;SHT31;66600;48.378;9.948;2023-03-01T08:25:07;-0.68;73.09
77496;SHT31;66600;48.378;9.948;2023-03-01T08:27:32;-0.60;73.14
77496;SHT31;66600;48.378;9.948;2023-03-01T08:29:58;-0.61;72.64
77496;SHT31;66600;48.378;9.948;2023-03-01T08:32:23;-0.28;72.05
77496;SHT31;66600;48.378;9.948;2023-03-01T08:34:48;-0.19;71.34
77496;SHT31;66600;48.378;9.948;2023-03-01T08:37:13;-0.07;70.93
77496;SHT31;66600;48.378;9.948;2023-03-01T08:39:39;-0.10;71.47
77496;SHT31;66600;48.378;9.948;2023-03-01T08:42:04;-0.03;70.61
77496;SHT31;66600;48.378;9.948;2023-03-01T08:44:29;0.21;70.12
77496;SHT31;66600;48.378;9.948;2023-03-01T08:46:55;0.25;69.81
77496;SHT31;66600;48.378;9.948;2023-03-01T08:49:21;-0.16;69.97
77496;SHT31;66600;48.378;9.948;2023-03-01T08:51:47;-0.06;70.78
77496;SHT31;66600;48.378;9.948;2023-03-01T08:54:20;-0.02;71.13
77496;SHT31;66600;48.378;9.948;2023-03-01T08:56:46;0.01;70.41
77496;SHT31;66600;48.378;9.948;2023-03-01T08:59:12;0.26;69.53
77496;SHT31;66600;48.378;9.948;2023-03-01T09:01:38;0.07;69.80
77496;SHT31;66600;48.378;9.948;2023-03-01T09:04:03;0.00;71.06
77496;SHT31;66600;48.378;9.948;2023-03-01T09:06:35;0.37;69.87
77496;SHT31;66600;48.378;9.948;2023-03-01T09:09:01;0.32;69.56
77496;SHT31;66600;48.378;9.948;2023-03-01T09:11:27;0.15;69.83
77496;SHT31;66600;48.378;9.948;2023-03-01T09:13:53;0.45;69.44
77496;SHT31;66600;48.378;9.948;2023-03-01T09:16:20;0.57;68.49
77496;SHT31;66600;48.378;9.948;2023-03-01T09:18:49;0.33;69.12
77496;SHT31;66600;48.378;9.948;2023-03-01T09:21:16;0.02;70.09
77496;SHT31;66600;48.378;9.948;2023-03-01T09:23:44;-0.05;70.63
77496;SHT31;66600;48.378;9.948;2023-03-01T09:26:15;0.31;70.06
77496;SHT31;66600;48.378;9.948;2023-03-01T09:28:41;0.19;69.68
77496;SHT31;66600;48.378;9.948;2023-03-01T09:31:07;0.31;70.03
77496;SHT31;66600;48.378;9.948;2023-03-01T09:33:33;0.14;70.57
77496;SHT31;66600;48.378;9.948;2023-03-01T09:36:06;0.49;70.16
77496;SHT31;66600;48.378;9.948;2023-03-01T09:38:33;0.52;69.47
77496;SHT31;66600;48.378;9.948;2023-03-01T09:41:00;0.73;69.15
77496;SHT31;66600;48.378;9.948;2023-03-01T09:43:34;0.57;69.34
77496;SHT31;66600;48.378;9.948;2023-03-01T09:46:08;0.21;69.36
77496;SHT31;66600;48.378;9.948;2023-03-01T09:48:49;0.44;69.82
77496;SHT31;66600;48.378;9.948;2023-03-01T09:51:19;0.75;69.15
77496;SHT31;66600;48.378;9.948;2023-03-01T09:53:46;0.88;68.30
77496;SHT31;66600;48.378;9.948;2023-03-01T09:56:17;1.13;67.82
77496;SHT31;66600;48.378;9.948;2023-03-01T10:01:29;1.31;67.41
77496;SHT31;66600;48.378;9.948;2023-03-01T10:09:38;1.28;67.43
77496;SHT31;66600;48.378;9.948;2023-03-01T10:12:10;1.41;67.12
77496;SHT31;66600;48.378;9.948;2023-03-01T10:14:42;1.55;66.80
77496;SHT31;66600;48.378;9.948;2023-03-01T10:17:18;1.80;66.11
77496;SHT31;66600;48.378;9.948;2023-03-01T10:19:46;1.51;66.90
77496;SHT31;66600;48.378;9.948;2023-03-01T10:22:30;1.77;66.04
77496;SHT31;66600;48.378;9.948;2023-03-01T10:24:58;2.22;65.28
77496;SHT31;66600;48.378;9.948;2023-03-01T10:27:53;2.08;65.01
77496;SHT31;66600;48.378;9.948;2023-03-01T10:30:22;2.25;65.10
77496;SHT31;66600;48.378;9.948;2023-03-01T10:32:52;2.29;64.32
77496;SHT31;66600;48.378;9.948;2023-03-01T10:35:21;2.60;63.91
77496;SHT31;66600;48.378;9.948;2023-03-01T10:38:16;2.22;64.15
77496;SHT31;66600;48.378;9.948;2023-03-01T10:40:56;1.73;65.02
77496;SHT31;66600;48.378;9.948;2023-03-01T10:43:24;2.03;65.30
77496;SHT31;66600;48.378;9.948;2023-03-01T10:45:51;2.24;63.93
77496;SHT31;66600;48.378;9.948;2023-03-01T10:48:22;2.50;64.00
77496;SHT31;66600;48.378;9.948;2023-03-01T10:51:06;2.89;62.59
77496;SHT31;66600;48.378;9.948;2023-03-01T10:53:42;3.18;61.65
77496;SHT31;66600;48.378;9.948;2023-03-01T10:56:09;3.03;60.99
77496;SHT31;66600;48.378;9.948;2023-03-01T10:58:37;2.79;62.01
77496;SHT31;66600;48.378;9.948;2023-03-01T11:04:12;2.71;62.31
77496;SHT31;66600;48.378;9.948;2023-03-01T11:06:40;2.66;62.50
77496;SHT31;66600;48.378;9.948;2023-03-01T11:09:21;2.90;62.80
77496;SHT31;66600;48.378;9.948;2023-03-01T11:11:52;2.45;62.63
77496;SHT31;66600;48.378;9.948;2023-03-01T11:14:24;2.21;63.72
77496;SHT31;66600;48.378;9.948;2023-03-01T11:17:13;2.76;63.16
77496;SHT31;66600;48.378;9.948;2023-03-01T11:19:40;2.48;63.55
77496;SHT31;66600;48.378;9.948;2023-03-01T11:22:12;2.14;63.99
77496;SHT31;66600;48.378;9.948;2023-03-01T11:24:44;2.44;63.43
77496;SHT31;66600;48.378;9.948;2023-03-01T11:27:29;2.69;62.65
77496;SHT31;66600;48.378;9.948;2023-03-01T11:30:02;2.69;61.90
77496;SHT31;66600;48.378;9.948;2023-03-01T11:33:23;3.13;62.33
77496;SHT31;66600;48.378;9.948;2023-03-01T11:35:23;2.49;62.72
77496;SHT31;66600;48.378;9.948;2023-03-01T11:40:34;3.24;60.49
77496;SHT31;66600;48.378;9.948;2023-03-01T11:43:17;3.55;60.52
77496;SHT31;66600;48.378;9.948;2023-03-01T11:48:36;3.83;60.65
77496;SHT31;66600;48.378;9.948;2023-03-01T11:51:12;4.38;59.46
77496;SHT31;66600;48.378;9.948;2023-03-01T11:54:02;4.75;57.87
77496;SHT31;66600;48.378;9.948;2023-03-01T11:56:34;4.99;56.91
77496;SHT31;66600;48.378;9.948;2023-03-01T12:12:46;4.66;57.91
77496;SHT31;66600;48.378;9.948;2023-03-01T12:18:22;4.71;57.17
77496;SHT31;66600;48.378;9.948;2023-03-01T12:29:23;4.92;57.62
77496;SHT31;66600;48.378;9.948;2023-03-01T12:34:45;4.87;56.65
77496;SHT31;66600;48.378;9.948;2023-03-01T12:43:23;4.97;57.26
77496;SHT31;66600;48.378;9.948;2023-03-01T12:49:02;5.28;57.31
77496;SHT31;66600;48.378;9.948;2023-03-01T12:51:32;5.11;55.69
77496;SHT31;66600;48.378;9.948;2023-03-01T12:54:07;5.27;56.60
77496;SHT31;66600;48.378;9.948;2023-03-01T12:56:37;4.82;57.81
77496;SHT31;66600;48.378;9.948;2023-03-01T12:59:21;4.18;58.32
77496;SHT31;66600;48.378;9.948;2023-03-01T13:04:27;4.90;57.81
77496;SHT31;66600;48.378;9.948;2023-03-01T13:07:40;5.21;56.78
77496;SHT31;66600;48.378;9.948;2023-03-01T13:17:53;4.61;57.66
77496;SHT31;66600;48.378;9.948;2023-03-01T13:20:22;5.06;58.06
77496;SHT31;66600;48.378;9.948;2023-03-01T13:23:07;5.23;57.19
77496;SHT31;66600;48.378;9.948;2023-03-01T13:25:34;4.71;57.55
77496;SHT31;66600;48.378;9.948;2023-03-01T13:31:05;4.92;57.74
77496;SHT31;66600;48.378;9.948;2023-03-01T13:35:59;4.76;57.28
77496;SHT31;66600;48.378;9.948;2023-03-01T13:41:09;5.32;56.45
77496;SHT31;66600;48.378;9.948;2023-03-01T13:43:36;5.83;55.90
77496;SHT31;66600;48.378;9.948;2023-03-01T13:46:14;5.62;55.96
77496;SHT31;66600;48.378;9.948;2023-03-01T13:48:40;6.05;54.80
77496;SHT31;66600;48.378;9.948;2023-03-01T13:51:10;6.14;54.12
77496;SHT31;66600;48.378;9.948;2023-03-01T13:53:42;5.90;55.07
77496;SHT31;66600;48.378;9.948;2023-03-01T13:56:15;6.11;54.99
77496;SHT31;66600;48.378;9.948;2023-03-01T13:58:47;6.35;54.32
77496;SHT31;66600;48.378;9.948;2023-03-01T14:01:22;6.56;53.52
77496;SHT31;66600;48.378;9.948;2023-03-01T14:03:48;6.31;53.80
77496;SHT31;66600;48.378;9.948;2023-03-01T14:06:21;6.11;54.39
77496;SHT31;66600;48.378;9.948;2023-03-01T14:08:48;6.18;53.75
77496;SHT31;66600;48.378;9.948;2023-03-01T14:19:55;6.18;53.90
77496;SHT31;66600;48.378;9.948;2023-03-01T14:22:26;6.13;54.22
77496;SHT31;66600;48.378;9.948;2023-03-01T14:25:02;6.71;53.04
77496;SHT31;66600;48.378;9.948;2023-03-01T14:27:33;6.27;53.72
77496;SHT31;66600;48.378;9.948;2023-03-01T14:30:10;6.23;53.68
77496;SHT31;66600;48.378;9.948;2023-03-01T14:32:37;6.31;53.39
77496;SHT31;66600;48.378;9.948;2023-03-01T14:35:03;6.06;54.85
77496;SHT31;66600;48.378;9.948;2023-03-01T14:37:33;6.54;53.53
77496;SHT31;66600;48.378;9.948;2023-03-01T14:40:00;6.69;52.53
77496;SHT31;66600;48.378;9.948;2023-03-01T14:42:30;6.83;51.95
77496;SHT31;66600;48.378;9.948;2023-03-01T14:44:57;6.54;52.54
77496;SHT31;66600;48.378;9.948;2023-03-01T14:47:34;6.93;52.35
77496;SHT31;66600;48.378;9.948;2023-03-01T14:50:19;6.51;52.38
77496;SHT31;66600;48.378;9.948;2023-03-01T14:52:48;5.92;54.68
77496;SHT31;66600;48.378;9.948;2023-03-01T14:55:19;6.10;54.26
77496;SHT31;66600;48.378;9.948;2023-03-01T14:57:48;6.71;53.05
77496;SHT31;66600;48.378;9.948;2023-03-01T15:00:24;6.92;52.25
77496;SHT31;66600;48.378;9.948;2023-03-01T15:02:51;6.88;51.82
77496;SHT31;66600;48.378;9.948;2023-03-01T15:05:29;5.85;54.41
77496;SHT31;66600;48.378;9.948;2023-03-01T15:07:57;6.13;54.51
77496;SHT31;66600;48.378;9.948;2023-03-01T15:10:35;6.09;54.14
77496;SHT31;66600;48.378;9.948;2023-03-01T15:13:20;5.90;54.82
77496;SHT31;66600;48.378;9.948;2023-03-01T15:15:47;6.02;54.44
77496;SHT31;66600;48.378;9.948;2023-03-01T15:18:17;5.76;54.93
77496;SHT31;66600;48.378;9.948;2023-03-01T15:20:43;5.93;55.45
77496;SHT31;66600;48.378;9.948;2023-03-01T15:23:26;5.92;54.71
77496;SHT31;66600;48.378;9.948;2023-03-01T15:25:53;5.69;55.44
77496;SHT31;66600;48.378;9.948;2023-03-01T15:28:28;6.25;54.78
77496;SHT31;66600;48.378;9.948;2023-03-01T15:31:04;6.49;53.86
77496;SHT31;66600;48.378;9.948;2023-03-01T15:33:36;6.65;52.98
77496;SHT31;66600;48.378;9.948;2023-03-01T15:36:49;6.20;53.88
77496;SHT31;66600;48.378;9.948;2023-03-01T15:38:56;6.40;53.58
77496;SHT31;66600;48.378;9.948;2023-03-01T15:43:51;6.16;53.74
77496;SHT31;66600;48.378;9.948;2023-03-01T15:46:30;6.42;53.57
77496;SHT31;66600;48.378;9.948;2023-03-01T15:48:59;6.07;54.62
77496;SHT31;66600;48.378;9.948;2023-03-01T15:51:31;5.63;55.49
77496;SHT31;66600;48.378;9.948;2023-03-01T15:54:02;6.00;55.12
77496;SHT31;66600;48.378;9.948;2023-03-01T15:56:28;6.11;55.00
77496;SHT31;66600;48.378;9.948;2023-03-01T15:58:58;5.99;54.59
77496;SHT31;66600;48.378;9.948;2023-03-01T16:01:24;6.03;55.05
77496;SHT31;66600;48.378;9.948;2023-03-01T16:03:49;5.78;55.28
77496;SHT31;66600;48.378;9.948;2023-03-01T16:06:15;5.78;55.53
77496;SHT31;66600;48.378;9.948;2023-03-01T16:08:40;5.49;55.90
77496;SHT31;66600;48.378;9.948;2023-03-01T16:11:16;5.62;55.69
77496;SHT31;66600;48.378;9.948;2023-03-01T16:13:41;5.76;55.48
77496;SHT31;66600;48.378;9.948;2023-03-01T16:16:09;5.70;55.61
77496;SHT31;66600;48.378;9.948;2023-03-01T16:18:37;6.02;55.09
77496;SHT31;66600;48.378;9.948;2023-03-01T16:21:03;5.66;55.37
77496;SHT31;66600;48.378;9.948;2023-03-01T16:23:29;5.90;54.87
77496;SHT31;66600;48.378;9.948;2023-03-01T16:25:54;5.92;55.20
77496;SHT31;66600;48.378;9.948;2023-03-01T16:28:23;5.76;55.34
77496;SHT31;66600;48.378;9.948;2023-03-01T16:30:48;5.83;55.45
77496;SHT31;66600;48.378;9.948;2023-03-01T16:33:14;5.69;56.13
77496;SHT31;66600;48.378;9.948;2023-03-01T16:35:40;5.49;56.93
77496;SHT31;66600;48.378;9.948;2023-03-01T16:38:05;5.37;57.27
77496;SHT31;66600;48.378;9.948;2023-03-01T16:40:30;5.19;58.10
77496;SHT31;66600;48.378;9.948;2023-03-01T16:42:56;4.89;58.59
77496;SHT31;66600;48.378;9.948;2023-03-01T16:45:25;4.65;59.57
77496;SHT31;66600;48.378;9.948;2023-03-01T16:47:54;4.45;60.55
77496;SHT31;66600;48.378;9.948;2023-03-01T16:50:19;4.34;60.80
77496;SHT31;66600;48.378;9.948;2023-03-01T16:52:44;4.27;61.12
77496;SHT31;66600;48.378;9.948;2023-03-01T16:55:10;4.25;61.23
77496;SHT31;66600;48.378;9.948;2023-03-01T16:57:37;4.24;61.59
77496;SHT31;66600;48.378;9.948;2023-03-01T17:00:05;4.22;61.50
77496;SHT31;66600;48.378;9.948;2023-03-01T17:02:33;4.20;61.85
77496;SHT31;66600;48.378;9.948;2023-03-01T17:04:59;4.25;61.73
77496;SHT31;66600;48.378;9.948;2023-03-01T17:07:24;4.30;61.31
77496;SHT31;66600;48.378;9.948;2023-03-01T17:09:49;4.31;61.46
77496;SHT31;66600;48.378;9.948;2023-03-01T17:12:15;4.27;61.71
77496;SHT31;66600;48.378;9.948;2023-03-01T17:14:41;4.25;61.81
77496;SHT31;66600;48.378;9.948;2023-03-01T17:17:08;4.17;62.10
77496;SHT31;66600;48.378;9.948;2023-03-01T17:19:33;4.08;62.56
77496;SHT31;66600;48.378;9.948;2023-03-01T17:22:03;4.07;62.53